sensor_id;sensor_type;location;lat;lon;timestamp;temperature;humidity
18450;DHT22;9354;50.194;7.690;2023-02-01T00:01:20;5.00;99.90
18450;DHT22;9354;50.194;7.690;2023-02-01T00:03:47;5.00;99.90
18450;DHT22;9354;50.194;7.690;2023-02-01T00:06:14;5.10;99.90
18450;DHT22;9354;50.194;7.690;2023-02-01T00:08:42;5.00;99.90
18450;DHT22;9354;50.194;7.690;2023-02-01T00:11:11;5.00;99.90
18450;DHT22;9354;50.194;7.690;2023-02-01T00:13:40;5.00;99.90
18450;DHT22;9354;50.194;7.690;2023-02-01T00:16:10;5.00;99.90
18450;DHT22;9354;50.194;7.690;2023-02-01T00:18:38;5.00;99.90
18450;DHT22;9354;50.194;7.690;2023-02-01T00:21:06;5.00;99.90
18450;DHT22;9354;50.194;7.690;2023-02-01T00:23:33;5.00;99.90
18450;DHT22;9354;50.194;7.690;2023-02-01T00:26:01;5.00;99.90
18450;DHT22;9354;50.194;7.690;2023-02-01T00:28:29;5.00;99.90
18450;DHT22;9354;50.194;7.690;2023-02-01T00:30:57;5.00;99.90
18450;DHT22;9354;50.194;7.690;2023-02-01T00:33:26;5.00;99.90
18450;DHT22;9354;50.194;7.690;2023-02-01T00:35:56;5.00;99.90
18450;DHT22;9354;50.194;7.690;2023-02-01T00:38:24;5.00;99.90
18450;DHT22;9354;50.194;7.690;2023-02-01T00:40:52;5.00;99.90
18450;DHT22;9354;50.194;7.690;2023-02-01T00:43:19;5.00;99.90
18450;DHT22;9354;50.194;7.690;2023-02-01T00:45:47;5.00;99.90
18450;DHT22;9354;50.194;7.690;2023-02-01T00:48:14;5.00;99.90
18450;DHT22;9354;50.194;7.690;2023-02-01T00:50:43;5.10;99.90
18450;DHT22;9354;50.194;7.690;2023-02-01T00:53:11;5.10;99.90
18450;DHT22;9354;50.194;7.690;2023-02-01T00:55:38;5.10;99.90
18450;DHT22;9354;50.194;7.690;2023-02-01T00:58:05;5.10;99.90
18450;DHT22;9354;50.194;7.690;2023-02-01T01:00:35;5.10;99.90
18450;DHT22;9354;50.194;7.690;2023-02-01T01:03:02;5.10;99.90
18450;DHT22;9354;50.194;7.690;2023-02-01T01:05:45;5.10;99.90
18450;DHT22;9354;50.194;7.690;2023-02-01T01:08:12;5.10;99.90
18450;DHT22;9354;50.194;7.690;2023-02-01T01:10:40;5.10;99.90
18450;DHT22;9354;50.194;7.690;2023-02-01T01:13:08;5.10;99.90
18450;DHT22;9354;50.194;7.690;2023-02-01T01:15:36;5.10;99.90
18450;DHT22;9354;50.194;7.690;2023-02-01T01:18:04;5.10;99.90
18450;DHT22;9354;50.194;7.690;2023-02-01T01:20:34;5.10;99.90
18450;DHT22;9354;50.194;7.690;2023-02-01T01:23:04;5.10;99.90
18450;DHT22;9354;50.194;7.690;2023-02-01T01:25:32;5.10;99.90
18450;DHT22;9354;50.194;7.690;2023-02-01T01:27:59;5.10;99.90
18450;DHT22;9354;50.194;7.690;2023-02-01T01:30:26;5.10;99.90
18450;DHT22;9354;50.194;7.690;2023-02-01T01:32:54;5.10;99.90
18450;DHT22;9354;50.194;7.690;2023-02-01T01:35:24;5.10;99.90
18450;DHT22;9354;50.194;7.690;2023-02-01T01:37:51;5.10;99.90
18450;DHT22;9354;50.194;7.690;2023-02-01T01:40:20;5.10;99.90
18450;DHT22;9354;50.194;7.690;2023-02-01T01:42:47;5.10;99.90
18450;DHT22;9354;50.194;7.690;2023-02-01T01:45:23;5.10;99.90
18450;DHT22;9354;50.194;7.690;2023-02-01T01:47:53;5.10;99.90
18450;DHT22;9354;50.194;7.690;2023-02-01T01:50:25;5.10;99.90
18450;DHT22;9354;50.194;7.690;2023-02-01T01:52:55;5.10;99.90
18450;DHT22;9354;50.194;7.690;2023-02-01T01:55:26;5.10;99.90
18450;DHT22;9354;50.194;7.690;2023-02-01T01:58:01;5.10;99.90
18450;DHT22;9354;50.194;7.690;2023-02-01T02:00:29;5.10;99.90
18450;DHT22;9354;50.194;7.690;2023-02-01T02:02:59;5.10;99.90
18450;DHT22;9354;50.194;7.690;2023-02-01T02:05:29;5.10;99.90
18450;DHT22;9354;50.194;7.690;2023-02-01T02:07:59;5.10;99.90
18450;DHT22;9354;50.194;7.690;2023-02-01T02:10:28;5.10;99.90
18450;DHT22;9354;50.194;7.690;2023-02-01T02:13:10;5.10;99.90
18450;DHT22;9354;50.194;7.690;2023-02-01T02:15:42;5.10;99.90
18450;DHT22;9354;50.194;7.690;2023-02-01T02:18:15;5.10;99.90
18450;DHT22;9354;50.194;7.690;2023-02-01T02:20:52;5.20;99.90
18450;DHT22;9354;50.194;7.690;2023-02-01T02:26:51;5.10;99.90
18450;DHT22;9354;50.194;7.690;2023-02-01T02:30:01;5.10;99.90
18450;DHT22;9354;50.194;7.690;2023-02-01T02:32:58;5.10;99.90
18450;DHT22;9354;50.194;7.690;2023-02-01T02:35:38;5.10;99.90
18450;DHT22;9354;50.194;7.690;2023-02-01T02:38:13;5.10;99.90
18450;DHT22;9354;50.194;7.690;2023-02-01T02:40:48;5.10;99.90
18450;DHT22;9354;50.194;7.690;2023-02-01T02:43:21;5.10;99.90
18450;DHT22;9354;50.194;7.690;2023-02-01T02:46:18;5.10;99.90
18450;DHT22;9354;50.194;7.690;2023-02-01T02:49:10;5.10;99.90
18450;DHT22;9354;50.194;7.690;2023-02-01T02:51:47;5.10;99.90
18450;DHT22;9354;50.194;7.690;2023-02-01T02:54:36;5.10;99.90
18450;DHT22;9354;50.194;7.690;2023-02-01T02:57:20;5.10;99.90
18450;DHT22;9354;50.194;7.690;2023-02-01T03:00:10;5.10;99.90
18450;DHT22;9354;50.194;7.690;2023-02-01T03:02:56;5.10;99.90
18450;DHT22;9354;50.194;7.690;2023-02-01T03:05:43;5.10;99.90
18450;DHT22;9354;50.194;7.690;2023-02-01T03:08:14;5.10;99.90
18450;DHT22;9354;50.194;7.690;2023-02-01T03:10:48;5.10;99.90
18450;DHT22;9354;50.194;7.690;2023-02-01T03:13:23;5.10;99.90
18450;DHT22;9354;50.194;7.690;2023-02-01T03:15:54;5.10;99.90
18450;DHT22;9354;50.194;7.690;2023-02-01T03:18:28;5.10;99.90
18450;DHT22;9354;50.194;7.690;2023-02-01T03:20:58;5.10;99.90
18450;DHT22;9354;50.194;7.690;2023-02-01T03:23:30;5.10;99.90
18450;DHT22;9354;50.194;7.690;2023-02-01T03:26:01;5.10;99.90
18450;DHT22;9354;50.194;7.690;2023-02-01T03:28:30;5.10;99.90
18450;DHT22;9354;50.194;7.690;2023-02-01T03:31:00;5.10;99.90
18450;DHT22;9354;50.194;7.690;2023-02-01T03:33:28;5.10;99.90
18450;DHT22;9354;50.194;7.690;2023-02-01T03:36:09;5.10;99.90
18450;DHT22;9354;50.194;7.690;2023-02-01T03:38:45;5.10;99.90
18450;DHT22;9354;50.194;7.690;2023-02-01T03:41:17;5.10;99.90
18450;DHT22;9354;50.194;7.690;2023-02-01T03:43:52;5.10;99.90
18450;DHT22;9354;50.194;7.690;2023-02-01T03:46:26;5.10;99.90
18450;DHT22;9354;50.194;7.690;2023-02-01T03:49:00;5.10;99.90
18450;DHT22;9354;50.194;7.690;2023-02-01T03:51:29;5.10;99.90
18450;DHT22;9354;50.194;7.690;2023-02-01T03:53:59;5.10;99.90
18450;DHT22;9354;50.194;7.690;2023-02-01T03:56:29;5.10;99.90
18450;DHT22;9354;50.194;7.690;2023-02-01T03:58:58;5.10;99.90
18450;DHT22;9354;50.194;7.690;2023-02-01T04:01:28;5.10;99.90
18450;DHT22;9354;50.194;7.690;2023-02-01T04:03:55;5.10;99.90
18450;DHT22;9354;50.194;7.690;2023-02-01T04:06:23;5.10;99.90
18450;DHT22;9354;50.194;7.690;2023-02-01T04:08:51;5.10;99.90
18450;DHT22;9354;50.194;7.690;2023-02-01T04:11:22;5.10;99.90
18450;DHT22;9354;50.194;7.690;2023-02-01T04:13:49;5.20;99.90
18450;DHT22;9354;50.194;7.690;2023-02-01T04:16:16;5.20;99.90
18450;DHT22;9354;50.194;7.690;2023-02-01T04:18:44;5.20;99.90
18450;DHT22;9354;50.194;7.690;2023-02-01T04:21:11;5.10;99.90
18450;DHT22;9354;50.194;7.690;2023-02-01T04:23:38;5.20;99.90
18450;DHT22;9354;50.194;7.690;2023-02-01T04:26:05;5.20;99.90
18450;DHT22;9354;50.194;7.690;2023-02-01T04:28:34;5.20;99.90
18450;DHT22;9354;50.194;7.690;2023-02-01T04:31:01;5.10;99.90
18450;DHT22;9354;50.194;7.690;2023-02-01T04:33:29;5.10;99.90
18450;DHT22;9354;50.194;7.690;2023-02-01T04:35:57;5.20;99.90
18450;DHT22;9354;50.194;7.690;2023-02-01T04:38:25;5.10;99.90
18450;DHT22;9354;50.194;7.690;2023-02-01T04:40:55;5.20;99.90
18450;DHT22;9354;50.194;7.690;2023-02-01T04:43:22;5.20;99.90
18450;DHT22;9354;50.194;7.690;2023-02-01T04:45:51;5.20;99.90
18450;DHT22;9354;50.194;7.690;2023-02-01T04:48:20;5.10;99.90
18450;DHT22;9354;50.194;7.690;2023-02-01T04:50:48;5.20;99.90
18450;DHT22;9354;50.194;7.690;2023-02-01T04:53:16;5.20;99.90
18450;DHT22;9354;50.194;7.690;2023-02-01T04:55:44;5.10;99.90
18450;DHT22;9354;50.194;7.690;2023-02-01T04:58:11;5.20;99.90
18450;DHT22;9354;50.194;7.690;2023-02-01T05:00:38;5.10;99.90
18450;DHT22;9354;50.194;7.690;2023-02-01T05:03:07;5.20;99.90
18450;DHT22;9354;50.194;7.690;2023-02-01T05:05:34;5.20;99.90
18450;DHT22;9354;50.194;7.690;2023-02-01T05:08:02;5.10;99.90
18450;DHT22;9354;50.194;7.690;2023-02-01T05:10:30;5.10;99.90
18450;DHT22;9354;50.194;7.690;2023-02-01T05:12:57;5.10;99.90
18450;DHT22;9354;50.194;7.690;2023-02-01T05:15:42;5.20;99.90
18450;DHT22;9354;50.194;7.690;2023-02-01T05:18:10;5.20;99.90
18450;DHT22;9354;50.194;7.690;2023-02-01T05:20:38;5.20;99.90
18450;DHT22;9354;50.194;7.690;2023-02-01T05:23:05;5.20;99.90
18450;DHT22;9354;50.194;7.690;2023-02-01T05:25:32;5.20;99.90
18450;DHT22;9354;50.194;7.690;2023-02-01T05:28:00;5.20;99.90
18450;DHT22;9354;50.194;7.690;2023-02-01T05:30:27;5.20;99.90
18450;DHT22;9354;50.194;7.690;2023-02-01T05:32:54;5.20;99.90
18450;DHT22;9354;50.194;7.690;2023-02-01T05:35:23;5.20;99.90
18450;DHT22;9354;50.194;7.690;2023-02-01T05:37:50;5.10;99.90
18450;DHT22;9354;50.194;7.690;2023-02-01T05:40:18;5.10;99.90
18450;DHT22;9354;50.194;7.690;2023-02-01T05:42:45;5.10;99.90
18450;DHT22;9354;50.194;7.690;2023-02-01T05:45:13;5.10;99.90
18450;DHT22;9354;50.194;7.690;2023-02-01T05:47:40;5.10;99.90
18450;DHT22;9354;50.194;7.690;2023-02-01T05:50:08;5.00;99.90
18450;DHT22;9354;50.194;7.690;2023-02-01T05:52:37;5.00;99.90
18450;DHT22;9354;50.194;7.690;2023-02-01T05:55:05;5.00;99.90
18450;DHT22;9354;50.194;7.690;2023-02-01T05:57:32;4.90;99.90
18450;DHT22;9354;50.194;7.690;2023-02-01T05:59:59;4.90;99.90
18450;DHT22;9354;50.194;7.690;2023-02-01T06:02:27;4.90;99.90
18450;DHT22;9354;50.194;7.690;2023-02-01T06:04:54;4.90;99.90
18450;DHT22;9354;50.194;7.690;2023-02-01T06:07:21;4.90;99.90
18450;DHT22;9354;50.194;7.690;2023-02-01T06:09:50;4.80;99.90
18450;DHT22;9354;50.194;7.690;2023-02-01T06:12:18;4.80;99.90
18450;DHT22;9354;50.194;7.690;2023-02-01T06:14:45;4.80;99.90
18450;DHT22;9354;50.194;7.690;2023-02-01T06:17:12;4.80;99.90
18450;DHT22;9354;50.194;7.690;2023-02-01T06:19:40;4.80;99.90
18450;DHT22;9354;50.194;7.690;2023-02-01T06:22:07;4.70;99.90
18450;DHT22;9354;50.194;7.690;2023-02-01T06:24:34;4.70;99.90
18450;DHT22;9354;50.194;7.690;2023-02-01T06:27:03;4.70;99.90
18450;DHT22;9354;50.194;7.690;2023-02-01T06:29:31;4.70;99.90
18450;DHT22;9354;50.194;7.690;2023-02-01T06:31:58;4.70;99.90
18450;DHT22;9354;50.194;7.690;2023-02-01T06:34:25;4.70;99.90
18450;DHT22;9354;50.194;7.690;2023-02-01T06:36:52;4.70;99.90
18450;DHT22;9354;50.194;7.690;2023-02-01T06:39:21;4.70;99.90
18450;DHT22;9354;50.194;7.690;2023-02-01T06:41:48;4.70;99.90
18450;DHT22;9354;50.194;7.690;2023-02-01T06:44:17;4.70;99.90
18450;DHT22;9354;50.194;7.690;2023-02-01T06:46:45;4.60;99.90
18450;DHT22;9354;50.194;7.690;2023-02-01T06:49:12;4.60;99.90
18450;DHT22;9354;50.194;7.690;2023-02-01T06:51:39;4.60;99.90
18450;DHT22;9354;50.194;7.690;2023-02-01T06:54:07;4.60;99.90
18450;DHT22;9354;50.194;7.690;2023-02-01T06:56:34;4.60;99.90
18450;DHT22;9354;50.194;7.690;2023-02-01T06:59:03;4.60;99.90
18450;DHT22;9354;50.194;7.690;2023-02-01T07:01:33;4.60;99.90
18450;DHT22;9354;50.194;7.690;2023-02-01T07:04:00;4.50;99.90
18450;DHT22;9354;50.194;7.690;2023-02-01T07:06:28;4.50;99.90
18450;DHT22;9354;50.194;7.690;2023-02-01T07:08:55;4.50;99.90
18450;DHT22;9354;50.194;7.690;2023-02-01T07:11:24;4.50;99.90
18450;DHT22;9354;50.194;7.690;2023-02-01T07:13:53;4.50;99.90
18450;DHT22;9354;50.194;7.690;2023-02-01T07:16:20;4.50;99.90
18450;DHT22;9354;50.194;7.690;2023-02-01T07:18:50;4.50;99.90
18450;DHT22;9354;50.194;7.690;2023-02-01T07:21:17;4.50;99.90
18450;DHT22;9354;50.194;7.690;2023-02-01T07:23:45;4.50;99.90
18450;DHT22;9354;50.194;7.690;2023-02-01T07:26:14;4.50;99.90
18450;DHT22;9354;50.194;7.690;2023-02-01T07:28:42;4.50;99.90
18450;DHT22;9354;50.194;7.690;2023-02-01T07:31:11;4.50;99.90
18450;DHT22;9354;50.194;7.690;2023-02-01T07:33:39;4.50;99.90
18450;DHT22;9354;50.194;7.690;2023-02-01T07:36:12;4.50;99.90
18450;DHT22;9354;50.194;7.690;2023-02-01T07:38:39;4.60;99.90
18450;DHT22;9354;50.194;7.690;2023-02-01T07:41:07;4.50;99.90
18450;DHT22;9354;50.194;7.690;2023-02-01T07:43:35;4.60;99.90
18450;DHT22;9354;50.194;7.690;2023-02-01T07:46:04;4.60;99.90
18450;DHT22;9354;50.194;7.690;2023-02-01T07:48:33;4.60;99.90
18450;DHT22;9354;50.194;7.690;2023-02-01T07:51:02;4.70;99.90
18450;DHT22;9354;50.194;7.690;2023-02-01T07:53:32;4.80;99.90
18450;DHT22;9354;50.194;7.690;2023-02-01T07:56:00;4.80;99.90
18450;DHT22;9354;50.194;7.690;2023-02-01T07:58:28;4.90;99.90
18450;DHT22;9354;50.194;7.690;2023-02-01T08:00:55;4.90;99.90
18450;DHT22;9354;50.194;7.690;2023-02-01T08:03:40;4.90;99.90
18450;DHT22;9354;50.194;7.690;2023-02-01T08:06:07;4.90;99.90
18450;DHT22;9354;50.194;7.690;2023-02-01T08:08:36;4.90;99.90
18450;DHT22;9354;50.194;7.690;2023-02-01T08:11:05;5.00;99.90
18450;DHT22;9354;50.194;7.690;2023-02-01T08:13:33;5.00;99.90
18450;DHT22;9354;50.194;7.690;2023-02-01T08:16:01;5.10;99.90
18450;DHT22;9354;50.194;7.690;2023-02-01T08:18:29;5.20;99.90
18450;DHT22;9354;50.194;7.690;2023-02-01T08:20:56;5.40;99.90
18450;DHT22;9354;50.194;7.690;2023-02-01T08:23:24;5.50;99.90
18450;DHT22;9354;50.194;7.690;2023-02-01T08:25:53;5.60;99.90
18450;DHT22;9354;50.194;7.690;2023-02-01T08:28:20;5.80;99.90
18450;DHT22;9354;50.194;7.690;2023-02-01T08:30:48;5.90;99.90
18450;DHT22;9354;50.194;7.690;2023-02-01T08:33:15;6.00;99.90
18450;DHT22;9354;50.194;7.690;2023-02-01T08:35:42;6.00;99.90
18450;DHT22;9354;50.194;7.690;2023-02-01T08:38:10;6.00;99.90
18450;DHT22;9354;50.194;7.690;2023-02-01T08:40:37;6.10;99.90
18450;DHT22;9354;50.194;7.690;2023-02-01T08:43:06;6.20;99.90
18450;DHT22;9354;50.194;7.690;2023-02-01T08:45:33;6.20;99.90
18450;DHT22;9354;50.194;7.690;2023-02-01T08:48:01;6.20;99.90
18450;DHT22;9354;50.194;7.690;2023-02-01T08:50:28;6.20;99.90
18450;DHT22;9354;50.194;7.690;2023-02-01T08:52:55;6.10;99.90
18450;DHT22;9354;50.194;7.690;2023-02-01T08:55:23;6.10;99.90
18450;DHT22;9354;50.194;7.690;2023-02-01T08:57:50;6.00;99.90
18450;DHT22;9354;50.194;7.690;2023-02-01T09:00:19;5.90;99.90
18450;DHT22;9354;50.194;7.690;2023-02-01T09:02:47;5.80;99.90
18450;DHT22;9354;50.194;7.690;2023-02-01T09:05:14;5.70;99.90
18450;DHT22;9354;50.194;7.690;2023-02-01T09:07:42;5.70;99.90
18450;DHT22;9354;50.194;7.690;2023-02-01T09:10:10;5.60;99.90
18450;DHT22;9354;50.194;7.690;2023-02-01T09:12:38;5.50;99.90
18450;DHT22;9354;50.194;7.690;2023-02-01T09:15:06;5.50;99.90
18450;DHT22;9354;50.194;7.690;2023-02-01T09:17:35;5.40;99.90
18450;DHT22;9354;50.194;7.690;2023-02-01T09:20:04;5.40;99.90
18450;DHT22;9354;50.194;7.690;2023-02-01T09:22:31;5.30;99.90
18450;DHT22;9354;50.194;7.690;2023-02-01T09:24:58;5.30;99.90
18450;DHT22;9354;50.194;7.690;2023-02-01T09:27:26;5.30;99.90
18450;DHT22;9354;50.194;7.690;2023-02-01T09:29:53;5.30;99.90
18450;DHT22;9354;50.194;7.690;2023-02-01T09:32:22;5.30;99.90
18450;DHT22;9354;50.194;7.690;2023-02-01T09:34:52;5.30;99.90
18450;DHT22;9354;50.194;7.690;2023-02-01T09:37:19;5.30;99.90
18450;DHT22;9354;50.194;7.690;2023-02-01T09:39:47;5.30;99.90
18450;DHT22;9354;50.194;7.690;2023-02-01T09:42:32;5.20;99.90
18450;DHT22;9354;50.194;7.690;2023-02-01T09:45:17;5.30;99.90
18450;DHT22;9354;50.194;7.690;2023-02-01T09:47:50;5.30;99.90
18450;DHT22;9354;50.194;7.690;2023-02-01T09:50:21;5.30;99.90
18450;DHT22;9354;50.194;7.690;2023-02-01T09:52:55;5.40;99.90
18450;DHT22;9354;50.194;7.690;2023-02-01T09:55:32;5.40;99.90
18450;DHT22;9354;50.194;7.690;2023-02-01T09:58:03;5.50;99.90
18450;DHT22;9354;50.194;7.690;2023-02-01T10:00:35;5.50;99.90
18450;DHT22;9354;50.194;7.690;2023-02-01T10:03:03;5.50;99.90
18450;DHT22;9354;50.194;7.690;2023-02-01T10:05:54;5.60;99.90
18450;DHT22;9354;50.194;7.690;2023-02-01T10:08:33;5.60;99.90
18450;DHT22;9354;50.194;7.690;2023-02-01T10:11:13;5.60;99.90
18450;DHT22;9354;50.194;7.690;2023-02-01T10:13:51;5.50;99.90
18450;DHT22;9354;50.194;7.690;2023-02-01T10:16:29;5.50;99.90
18450;DHT22;9354;50.194;7.690;2023-02-01T10:19:20;5.50;99.90
18450;DHT22;9354;50.194;7.690;2023-02-01T10:21:59;5.60;99.90
18450;DHT22;9354;50.194;7.690;2023-02-01T10:24:42;5.50;99.90
18450;DHT22;9354;50.194;7.690;2023-02-01T10:27:14;5.50;99.90
18450;DHT22;9354;50.194;7.690;2023-02-01T10:29:47;5.50;99.90
18450;DHT22;9354;50.194;7.690;2023-02-01T10:32:17;5.50;99.90
18450;DHT22;9354;50.194;7.690;2023-02-01T10:34:49;5.50;99.90
18450;DHT22;9354;50.194;7.690;2023-02-01T10:37:26;5.50;99.90
18450;DHT22;9354;50.194;7.690;2023-02-01T10:39:55;5.40;99.90
18450;DHT22;9354;50.194;7.690;2023-02-01T10:42:26;5.40;99.90
18450;DHT22;9354;50.194;7.690;2023-02-01T10:44:54;5.40;99.90
18450;DHT22;9354;50.194;7.690;2023-02-01T10:47:23;5.40;99.90
18450;DHT22;9354;50.194;7.690;2023-02-01T10:49:57;5.40;99.90
18450;DHT22;9354;50.194;7.690;2023-02-01T10:52:36;5.40;99.90
18450;DHT22;9354;50.194;7.690;2023-02-01T10:55:31;5.40;99.90
18450;DHT22;9354;50.194;7.690;2023-02-01T10:58:00;5.50;99.90
18450;DHT22;9354;50.194;7.690;2023-02-01T11:00:37;5.50;99.90
18450;DHT22;9354;50.194;7.690;2023-02-01T11:03:30;5.50;99.90
18450;DHT22;9354;50.194;7.690;2023-02-01T11:05:59;5.60;99.90
18450;DHT22;9354;50.194;7.690;2023-02-01T11:08:31;5.50;99.90
18450;DHT22;9354;50.194;7.690;2023-02-01T11:11:00;5.50;99.90
18450;DHT22;9354;50.194;7.690;2023-02-01T11:13:30;5.50;99.90
18450;DHT22;9354;50.194;7.690;2023-02-01T11:16:02;5.50;99.90
18450;DHT22;9354;50.194;7.690;2023-02-01T11:18:33;5.50;99.90
18450;DHT22;9354;50.194;7.690;2023-02-01T11:21:02;5.50;99.90
18450;DHT22;9354;50.194;7.690;2023-02-01T11:23:33;5.50;99.90
18450;DHT22;9354;50.194;7.690;2023-02-01T11:26:10;5.50;99.90
18450;DHT22;9354;50.194;7.690;2023-02-01T11:28:40;5.60;99.90
18450;DHT22;9354;50.194;7.690;2023-02-01T11:31:12;5.60;99.90
18450;DHT22;9354;50.194;7.690;2023-02-01T11:33:47;5.60;99.90
18450;DHT22;9354;50.194;7.690;2023-02-01T11:36:18;5.60;99.90
18450;DHT22;9354;50.194;7.690;2023-02-01T11:38:54;5.70;99.90
18450;DHT22;9354;50.194;7.690;2023-02-01T11:41:34;5.70;99.90
18450;DHT22;9354;50.194;7.690;2023-02-01T11:44:14;5.70;99.90
18450;DHT22;9354;50.194;7.690;2023-02-01T11:46:44;5.70;99.90
18450;DHT22;9354;50.194;7.690;2023-02-01T11:49:19;5.70;99.90
18450;DHT22;9354;50.194;7.690;2023-02-01T11:52:00;5.80;99.90
18450;DHT22;9354;50.194;7.690;2023-02-01T11:54:45;5.90;99.90
18450;DHT22;9354;50.194;7.690;2023-02-01T11:57:41;5.90;99.90
18450;DHT22;9354;50.194;7.690;2023-02-01T12:00:39;6.10;99.90
18450;DHT22;9354;50.194;7.690;2023-02-01T12:06:34;6.20;99.90
18450;DHT22;9354;50.194;7.690;2023-02-01T12:09:21;6.30;99.90
18450;DHT22;9354;50.194;7.690;2023-02-01T12:12:00;6.30;99.90
18450;DHT22;9354;50.194;7.690;2023-02-01T12:14:48;6.40;99.90
18450;DHT22;9354;50.194;7.690;2023-02-01T12:17:55;6.40;99.90
18450;DHT22;9354;50.194;7.690;2023-02-01T12:20:47;6.50;99.90
18450;DHT22;9354;50.194;7.690;2023-02-01T12:23:25;6.60;99.90
18450;DHT22;9354;50.194;7.690;2023-02-01T12:26:44;6.60;99.90
18450;DHT22;9354;50.194;7.690;2023-02-01T12:29:30;6.70;99.90
18450;DHT22;9354;50.194;7.690;2023-02-01T12:32:20;6.80;99.90
18450;DHT22;9354;50.194;7.690;2023-02-01T12:35:12;7.00;99.90
18450;DHT22;9354;50.194;7.690;2023-02-01T12:37:51;7.00;99.90
18450;DHT22;9354;50.194;7.690;2023-02-01T12:40:34;7.10;99.90
18450;DHT22;9354;50.194;7.690;2023-02-01T12:43:25;7.10;99.90
18450;DHT22;9354;50.194;7.690;2023-02-01T12:45:59;7.00;99.90
18450;DHT22;9354;50.194;7.690;2023-02-01T12:48:33;7.00;99.90
18450;DHT22;9354;50.194;7.690;2023-02-01T12:51:04;6.90;99.90
18450;DHT22;9354;50.194;7.690;2023-02-01T12:53:44;6.80;99.90
18450;DHT22;9354;50.194;7.690;2023-02-01T12:56:16;6.70;99.90
18450;DHT22;9354;50.194;7.690;2023-02-01T12:58:48;6.60;99.90
18450;DHT22;9354;50.194;7.690;2023-02-01T13:01:21;6.60;99.90
18450;DHT22;9354;50.194;7.690;2023-02-01T13:03:56;6.60;99.90
18450;DHT22;9354;50.194;7.690;2023-02-01T13:06:29;6.60;99.90
18450;DHT22;9354;50.194;7.690;2023-02-01T13:09:01;6.70;99.90
18450;DHT22;9354;50.194;7.690;2023-02-01T13:11:33;6.80;99.90
18450;DHT22;9354;50.194;7.690;2023-02-01T13:14:05;7.00;99.90
18450;DHT22;9354;50.194;7.690;2023-02-01T13:16:40;7.10;99.90
18450;DHT22;9354;50.194;7.690;2023-02-01T13:19:15;7.10;99.90
18450;DHT22;9354;50.194;7.690;2023-02-01T13:21:46;7.10;99.90
18450;DHT22;9354;50.194;7.690;2023-02-01T13:24:27;7.00;99.90
18450;DHT22;9354;50.194;7.690;2023-02-01T13:26:56;7.10;99.90
18450;DHT22;9354;50.194;7.690;2023-02-01T13:29:25;7.10;99.90
18450;DHT22;9354;50.194;7.690;2023-02-01T13:32:35;7.20;99.90
18450;DHT22;9354;50.194;7.690;2023-02-01T13:35:38;7.40;99.90
18450;DHT22;9354;50.194;7.690;2023-02-01T13:38:22;7.50;99.90
18450;DHT22;9354;50.194;7.690;2023-02-01T13:41:03;7.40;99.90
18450;DHT22;9354;50.194;7.690;2023-02-01T13:43:34;7.20;99.90
18450;DHT22;9354;50.194;7.690;2023-02-01T13:46:06;7.10;99.90
18450;DHT22;9354;50.194;7.690;2023-02-01T13:48:39;7.10;99.90
18450;DHT22;9354;50.194;7.690;2023-02-01T13:51:08;6.90;99.90
18450;DHT22;9354;50.194;7.690;2023-02-01T13:53:36;6.80;99.90
18450;DHT22;9354;50.194;7.690;2023-02-01T13:56:10;6.70;99.90
18450;DHT22;9354;50.194;7.690;2023-02-01T13:58:40;6.70;99.90
18450;DHT22;9354;50.194;7.690;2023-02-01T14:01:33;6.70;99.90
18450;DHT22;9354;50.194;7.690;2023-02-01T14:04:04;6.70;99.90
18450;DHT22;9354;50.194;7.690;2023-02-01T14:06:41;6.70;99.90
18450;DHT22;9354;50.194;7.690;2023-02-01T14:09:18;6.60;99.90
18450;DHT22;9354;50.194;7.690;2023-02-01T14:11:49;6.60;99.90
18450;DHT22;9354;50.194;7.690;2023-02-01T14:14:44;6.60;99.90
18450;DHT22;9354;50.194;7.690;2023-02-01T14:17:39;6.60;99.90
18450;DHT22;9354;50.194;7.690;2023-02-01T14:23:19;6.60;99.90
18450;DHT22;9354;50.194;7.690;2023-02-01T14:25:58;6.60;99.90
18450;DHT22;9354;50.194;7.690;2023-02-01T14:28:29;6.50;99.90
18450;DHT22;9354;50.194;7.690;2023-02-01T14:30:58;6.50;99.90
18450;DHT22;9354;50.194;7.690;2023-02-01T14:33:27;6.50;99.90
18450;DHT22;9354;50.194;7.690;2023-02-01T14:36:06;6.50;99.90
18450;DHT22;9354;50.194;7.690;2023-02-01T14:38:37;6.50;99.90
18450;DHT22;9354;50.194;7.690;2023-02-01T14:41:26;6.50;99.90
18450;DHT22;9354;50.194;7.690;2023-02-01T14:44:25;6.40;99.90
18450;DHT22;9354;50.194;7.690;2023-02-01T14:47:29;6.40;99.90
18450;DHT22;9354;50.194;7.690;2023-02-01T14:50:17;6.40;99.90
18450;DHT22;9354;50.194;7.690;2023-02-01T14:52:49;6.40;99.90
18450;DHT22;9354;50.194;7.690;2023-02-01T14:55:24;6.50;99.90
18450;DHT22;9354;50.194;7.690;2023-02-01T14:57:54;6.50;99.90
18450;DHT22;9354;50.194;7.690;2023-02-01T15:00:25;6.50;99.90
18450;DHT22;9354;50.194;7.690;2023-02-01T15:02:54;6.50;99.90
18450;DHT22;9354;50.194;7.690;2023-02-01T15:05:29;6.50;99.90
18450;DHT22;9354;50.194;7.690;2023-02-01T15:08:13;6.40;99.90
18450;DHT22;9354;50.194;7.690;2023-02-01T15:10:45;6.40;99.90
18450;DHT22;9354;50.194;7.690;2023-02-01T15:13:19;6.50;99.90
18450;DHT22;9354;50.194;7.690;2023-02-01T15:16:00;6.50;99.90
18450;DHT22;9354;50.194;7.690;2023-02-01T15:18:28;6.50;99.90
18450;DHT22;9354;50.194;7.690;2023-02-01T15:21:00;6.50;99.90
18450;DHT22;9354;50.194;7.690;2023-02-01T15:23:28;6.50;99.90
18450;DHT22;9354;50.194;7.690;2023-02-01T15:25:57;6.50;99.90
18450;DHT22;9354;50.194;7.690;2023-02-01T15:28:26;6.50;99.90
18450;DHT22;9354;50.194;7.690;2023-02-01T15:30:56;6.50;99.90
18450;DHT22;9354;50.194;7.690;2023-02-01T15:33:24;6.50;99.90
18450;DHT22;9354;50.194;7.690;2023-02-01T15:35:52;6.50;99.90
18450;DHT22;9354;50.194;7.690;2023-02-01T15:38:32;6.50;99.90
18450;DHT22;9354;50.194;7.690;2023-02-01T15:41:05;6.50;99.90
18450;DHT22;9354;50.194;7.690;2023-02-01T15:43:35;6.50;99.90
18450;DHT22;9354;50.194;7.690;2023-02-01T15:46:07;6.50;99.90
18450;DHT22;9354;50.194;7.690;2023-02-01T15:48:38;6.50;99.90
18450;DHT22;9354;50.194;7.690;2023-02-01T15:51:10;6.50;99.90
18450;DHT22;9354;50.194;7.690;2023-02-01T15:53:38;6.50;99.90
18450;DHT22;9354;50.194;7.690;2023-02-01T15:56:12;6.50;99.90
18450;DHT22;9354;50.194;7.690;2023-02-01T15:58:43;6.50;99.90
18450;DHT22;9354;50.194;7.690;2023-02-01T16:01:13;6.50;99.90
18450;DHT22;9354;50.194;7.690;2023-02-01T16:03:43;6.50;99.90
18450;DHT22;9354;50.194;7.690;2023-02-01T16:06:12;6.50;99.90
18450;DHT22;9354;50.194;7.690;2023-02-01T16:08:55;6.50;99.90
18450;DHT22;9354;50.194;7.690;2023-02-01T16:11:26;6.50;99.90
18450;DHT22;9354;50.194;7.690;2023-02-01T16:13:56;6.50;99.90
18450;DHT22;9354;50.194;7.690;2023-02-01T16:16:24;6.60;99.90
18450;DHT22;9354;50.194;7.690;2023-02-01T16:18:51;6.50;99.90
18450;DHT22;9354;50.194;7.690;2023-02-01T16:21:19;6.50;99.90
18450;DHT22;9354;50.194;7.690;2023-02-01T16:23:49;6.50;99.90
18450;DHT22;9354;50.194;7.690;2023-02-01T16:26:17;6.50;99.90
18450;DHT22;9354;50.194;7.690;2023-02-01T16:28:47;6.50;99.90
18450;DHT22;9354;50.194;7.690;2023-02-01T16:31:16;6.60;99.90
18450;DHT22;9354;50.194;7.690;2023-02-01T16:33:48;6.50;99.90
18450;DHT22;9354;50.194;7.690;2023-02-01T16:36:15;6.50;99.90
18450;DHT22;9354;50.194;7.690;2023-02-01T16:38:43;6.50;99.90
18450;DHT22;9354;50.194;7.690;2023-02-01T16:41:13;6.50;99.90
18450;DHT22;9354;50.194;7.690;2023-02-01T16:43:40;6.50;99.90
18450;DHT22;9354;50.194;7.690;2023-02-01T16:46:14;6.50;99.90